Time;durP1;ratioP1;P1;durP2;ratioP2;P2;SDS_P1;SDS_P2;PMS_P1;PMS_P2;Temp;Humidity;BMP_temperature;BMP_pressure;BME280_temperature;BME280_humidity;BME280_pressure;Samples;Min_cycle;Max_cycle;Signal;HPM_P1;HPM_P2
2024/01/06 00:00:11;;;;;;;16.10;10.80;;;;;;;-1.82;85.68;99959.05;110985;242;42079;-59
2024/01/06 00:03:06;;;;;;;18.80;11.70;;;;;;;-1.80;85.74;99960.27;111236;242;39595;-55
2024/01/06 00:05:45;;;;;;;15.40;9.90;;;;;;;-1.77;85.85;99962.90;111237;242;39214;-55
2024/01/06 00:08:23;;;;;;;18.20;11.00;;;;;;;-1.75;85.90;99964.36;111222;242;39901;-59
2024/01/06 00:11:02;;;;;;;17.90;11.30;;;;;;;-1.75;86.07;99961.84;111248;242;39676;-58
2024/01/06 00:13:39;;;;;;;18.30;11.40;;;;;;;-1.69;86.04;99958.73;111197;242;39532;-55
2024/01/06 00:16:21;;;;;;;19.90;12.10;;;;;;;-1.69;86.25;99960.70;111226;242;40555;-55
2024/01/06 00:18:59;;;;;;;19.10;11.80;;;;;;;-1.69;86.35;99971.95;111260;242;39070;-56
2024/01/06 00:21:37;;;;;;;17.50;12.10;;;;;;;-1.69;86.47;99970.04;111245;242;40751;-56
2024/01/06 00:24:15;;;;;;;18.20;12.20;;;;;;;-1.73;86.55;99970.88;111226;242;38912;-59
2024/01/06 00:26:51;;;;;;;19.40;12.10;;;;;;;-1.75;86.70;99964.85;111247;241;40696;-59
2024/01/06 00:29:30;;;;;;;18.30;11.40;;;;;;;-1.78;86.79;99970.34;111239;241;38909;-59
2024/01/06 00:32:08;;;;;;;19.10;11.40;;;;;;;-1.81;87.08;99967.45;111224;242;39881;-57
2024/01/06 00:34:44;;;;;;;14.90;10.20;;;;;;;-1.85;87.24;99966.30;111260;242;39989;-58
2024/01/06 00:37:21;;;;;;;15.30;8.90;;;;;;;-1.87;87.25;99967.36;111252;241;39208;-54
2024/01/06 00:39:59;;;;;;;13.50;9.40;;;;;;;-1.91;87.45;99965.02;111268;242;39262;-55
2024/01/06 00:42:41;;;;;;;16.40;10.50;;;;;;;-1.89;87.37;99958.88;111267;241;38887;-56
2024/01/06 00:45:22;;;;;;;13.80;9.20;;;;;;;-1.89;87.54;99959.81;111232;241;39527;-55
2024/01/06 00:47:58;;;;;;;14.60;8.90;;;;;;;-1.87;87.60;99958.06;111226;241;39748;-56
2024/01/06 00:50:36;;;;;;;15.60;10.20;;;;;;;-1.91;87.67;99953.39;111237;242;39618;-56
2024/01/06 00:53:15;;;;;;;15.40;9.20;;;;;;;-1.92;87.76;99951.02;111241;242;39670;-55
2024/01/06 00:55:51;;;;;;;15.40;8.80;;;;;;;-1.93;87.85;99952.66;111231;241;39677;-55
2024/01/06 00:58:29;;;;;;;14.30;8.60;;;;;;;-1.96;87.94;99951.68;111251;241;39817;-55
2024/01/06 01:01:06;;;;;;;14.70;9.10;;;;;;;-2.02;88.11;99944.72;111238;242;41100;-55
2024/01/06 01:03:47;;;;;;;14.40;8.90;;;;;;;-2.04;88.16;99938.94;111272;241;39299;-59
2024/01/06 01:06:25;;;;;;;14.70;9.20;;;;;;;-2.03;88.16;99932.16;111223;241;40613;-57
2024/01/06 01:09:01;;;;;;;13.90;8.50;;;;;;;-2.02;88.13;99929.73;111252;242;40852;-58
2024/01/06 01:11:43;;;;;;;15.50;9.50;;;;;;;-2.02;88.36;99926.80;111278;241;39110;-58
2024/01/06 01:14:26;;;;;;;16.20;10.10;;;;;;;-2.03;88.33;99928.60;111223;241;39601;-58
2024/01/06 01:17:02;;;;;;;14.00;8.20;;;;;;;-2.05;88.42;99941.86;111203;241;39613;-56
2024/01/06 01:19:39;;;;;;;15.80;9.20;;;;;;;-2.11;88.50;99941.98;111251;241;39241;-54
2024/01/06 01:22:15;;;;;;;15.50;9.00;;;;;;;-2.16;88.63;99938.09;111259;241;40568;-54
2024/01/06 01:24:52;;;;;;;15.00;9.50;;;;;;;-2.19;88.66;99943.28;111265;241;39375;-57
2024/01/06 01:27:29;;;;;;;13.30;8.50;;;;;;;-2.15;88.48;99949.35;111303;241;40219;-57
2024/01/06 01:30:09;;;;;;;13.80;9.20;;;;;;;-2.17;88.40;99955.31;111278;242;40075;-58
2024/01/06 01:32:44;;;;;;;13.80;9.10;;;;;;;-2.16;88.48;99961.75;111243;241;39192;-55
2024/01/06 01:35:19;;;;;;;14.00;9.20;;;;;;;-2.14;88.46;99962.34;111264;241;39792;-55
2024/01/06 01:37:56;;;;;;;17.00;9.10;;;;;;;-2.10;88.36;99957.44;111232;241;39282;-58
2024/01/06 01:40:31;;;;;;;17.20;9.90;;;;;;;-2.07;88.51;99950.84;111252;241;41169;-57
2024/01/06 01:43:19;;;;;;;15.60;9.10;;;;;;;-2.08;88.58;99946.99;111221;241;39502;-54
2024/01/06 01:45:59;;;;;;;14.90;9.50;;;;;;;-2.14;88.80;99939.04;111255;241;40445;-54
2024/01/06 01:48:39;;;;;;;14.60;9.10;;;;;;;-2.13;88.74;99935.39;111251;242;41080;-52
2024/01/06 01:51:16;;;;;;;16.50;9.90;;;;;;;-2.09;88.78;99939.30;111234;242;39506;-55
2024/01/06 01:53:51;;;;;;;16.10;10.40;;;;;;;-2.07;88.78;99939.55;111244;242;39116;-58
2024/01/06 01:56:26;;;;;;;18.10;10.50;;;;;;;-2.08;88.83;99943.30;111257;242;39739;-58
2024/01/06 01:59:02;;;;;;;15.40;9.60;;;;;;;-2.11;88.80;99935.23;111286;242;39706;-58
2024/01/06 02:01:39;;;;;;;16.60;10.50;;;;;;;-2.15;88.79;99941.20;111249;242;39849;-58
2024/01/06 02:04:13;;;;;;;15.00;9.20;;;;;;;-2.13;88.79;99946.92;111250;242;40572;-58
2024/01/06 02:06:46;;;;;;;;;;;;;;;-2.11;88.75;99941.62;111275;242;39081;-55
2024/01/06 02:09:27;;;;;;;18.60;9.70;;;;;;;-2.10;88.85;99940.30;111359;242;39431;-55
2024/01/06 02:12:07;;;;;;;16.10;10.90;;;;;;;-2.12;88.92;99937.44;111315;242;39723;-55
2024/01/06 02:14:43;;;;;;;15.10;9.40;;;;;;;-2.10;88.86;99935.69;111299;242;39476;-54
2024/01/06 02:17:20;;;;;;;15.40;9.40;;;;;;;-2.13;88.79;99932.41;111270;242;39793;-55
2024/01/06 02:19:59;;;;;;;13.30;8.80;;;;;;;-2.15;88.84;99927.65;111256;242;40254;-56
2024/01/06 02:22:38;;;;;;;15.50;9.70;;;;;;;-2.13;88.85;99926.98;111258;242;40995;-58
2024/01/06 02:25:19;;;;;;;15.50;9.90;;;;;;;-2.11;88.84;99919.20;111252;242;39410;-57
2024/01/06 02:27:57;;;;;;;16.70;9.90;;;;;;;-2.12;88.76;99916.46;111237;242;39819;-57
2024/01/06 02:30:36;;;;;;;14.60;9.30;;;;;;;-2.12;88.75;99915.06;111275;242;40052;-57
2024/01/06 02:33:12;;;;;;;13.10;7.90;;;;;;;-2.14;88.68;99912.92;111262;242;39655;-58
2024/01/06 02:35:49;;;;;;;13.00;8.60;;;;;;;-2.14;88.60;99909.95;111209;242;40024;-59
2024/01/06 02:38:29;;;;;;;12.20;7.70;;;;;;;-2.14;88.58;99914.46;111192;242;38785;-54
2024/01/06 02:41:05;;;;;;;14.00;9.60;;;;;;;-2.11;88.45;99914.94;111246;242;40842;-54
2024/01/06 02:43:41;;;;;;;11.90;8.10;;;;;;;-2.09;88.57;99915.73;111274;242;40601;-57
2024/01/06 02:46:17;;;;;;;14.00;8.30;;;;;;;-2.07;88.47;99916.56;111261;242;39544;-58
2024/01/06 02:48:58;;;;;;;14.20;8.40;;;;;;;-2.06;88.61;99913.71;111174;242;39790;-58
2024/01/06 02:51:38;;;;;;;14.90;9.20;;;;;;;-2.08;88.74;99909.25;111283;241;39998;-58
2024/01/06 02:54:14;;;;;;;14.40;9.40;;;;;;;-2.08;88.74;99905.77;111282;242;38939;-58
2024/01/06 02:56:50;;;;;;;15.50;9.30;;;;;;;-2.07;88.90;99907.08;111304;242;39702;-55
2024/01/06 02:59:27;;;;;;;14.60;9.10;;;;;;;-2.09;88.90;99904.60;111235;242;41077;-56
2024/01/06 03:02:04;;;;;;;14.80;9.20;;;;;;;-2.11;88.93;99904.17;111272;242;39447;-56
2024/01/06 03:04:42;;;;;;;17.00;9.80;;;;;;;-2.10;88.95;99913.63;111261;242;40741;-55
2024/01/06 03:07:20;;;;;;;15.00;9.40;;;;;;;-2.11;88.93;99917.45;111262;242;39631;-58
2024/01/06 03:09:56;;;;;;;16.80;9.70;;;;;;;-2.10;89.00;99911.31;111269;242;40129;-59
2024/01/06 03:12:34;;;;;;;13.90;9.50;;;;;;;-2.07;89.07;99909.88;111283;242;39404;-58
2024/01/06 03:15:12;;;;;;;15.70;9.50;;;;;;;-2.08;89.09;99905.52;111258;242;39365;-57
2024/01/06 03:17:51;;;;;;;16.00;11.60;;;;;;;-2.01;89.15;99902.04;111193;242;39168;-57
2024/01/06 03:20:29;;;;;;;15.00;10.20;;;;;;;-2.03;89.27;99897.58;111237;242;39907;-58
2024/01/06 03:23:10;;;;;;;15.20;10.00;;;;;;;-1.99;89.11;99892.96;111249;242;39016;-55
2024/01/06 03:25:48;;;;;;;16.70;10.00;;;;;;;-1.94;89.06;99898.61;111261;242;40153;-55
2024/01/06 03:28:26;;;;;;;15.30;9.70;;;;;;;-1.97;89.20;99899.54;111281;242;40527;-58
2024/01/06 03:31:04;;;;;;;17.00;10.40;;;;;;;-2.05;89.48;99896.11;111247;242;40464;-58
2024/01/06 03:33:38;;;;;;;15.00;10.20;;;;;;;-2.10;89.48;99895.27;111258;242;40687;-54
2024/01/06 03:36:19;;;;;;;16.90;10.00;;;;;;;-2.07;89.53;99895.96;111230;242;39796;-54
2024/01/06 03:38:54;;;;;;;16.40;10.30;;;;;;;-2.08;89.76;99897.46;111317;242;40512;-59
2024/01/06 03:41:29;;;;;;;14.70;11.00;;;;;;;-2.09;89.73;99892.63;111334;241;39875;-59
2024/01/06 03:44:07;;;;;;;15.10;9.40;;;;;;;-2.11;89.91;99889.07;111252;241;40905;-59
2024/01/06 03:46:42;;;;;;;15.20;9.60;;;;;;;-2.10;89.87;99893.39;111289;242;40578;-57
2024/01/06 03:49:23;;;;;;;15.00;9.80;;;;;;;-2.10;89.98;99906.05;111244;242;40407;-56
2024/01/06 03:52:05;;;;;;;15.30;10.40;;;;;;;-2.05;89.96;99913.10;111270;242;39161;-59
2024/01/06 03:54:42;;;;;;;12.90;9.60;;;;;;;-2.03;89.90;99915.77;111224;242;39181;-59
2024/01/06 03:57:17;;;;;;;16.40;10.10;;;;;;;-2.03;89.93;99914.66;111287;241;39692;-55
2024/01/06 03:59:52;;;;;;;15.20;9.90;;;;;;;-2.01;89.90;99912.23;111281;242;40927;-55
2024/01/06 04:02:27;;;;;;;15.90;10.80;;;;;;;-1.97;89.88;99911.02;111286;242;40374;-55
2024/01/06 04:05:07;;;;;;;13.70;10.20;;;;;;;-1.92;89.86;99916.28;111219;241;40426;-55
2024/01/06 04:07:43;;;;;;;17.10;11.30;;;;;;;-1.91;89.85;99918.77;111234;242;39318;-55
2024/01/06 04:10:18;;;;;;;15.20;10.70;;;;;;;-1.87;89.87;99921.15;111277;242;40488;-55
2024/01/06 04:12:56;;;;;;;17.00;10.40;;;;;;;-1.88;89.88;99920.32;111261;242;40027;-55
2024/01/06 04:15:33;;;;;;;13.70;9.40;;;;;;;-1.90;89.87;99921.03;111220;242;40334;-55
2024/01/06 04:18:14;;;;;;;17.50;11.20;;;;;;;-1.90;89.90;99922.61;111272;241;39196;-59
2024/01/06 04:20:53;;;;;;;15.50;10.30;;;;;;;-1.93;89.88;99920.17;111238;241;40390;-59
2024/01/06 04:23:29;;;;;;;15.70;9.90;;;;;;;-1.92;89.93;99920.15;111271;241;40424;-56
2024/01/06 04:26:08;;;;;;;16.30;11.00;;;;;;;-1.97;90.03;99919.42;111252;242;39259;-57
2024/01/06 04:28:45;;;;;;;17.30;11.00;;;;;;;-1.96;90.10;99917.10;111255;241;39819;-55
2024/01/06 04:31:23;;;;;;;15.50;10.10;;;;;;;-1.97;90.20;99917.86;111258;242;39395;-54
2024/01/06 04:34:01;;;;;;;15.80;9.40;;;;;;;-1.94;90.26;99916.42;111242;241;39316;-54
2024/01/06 04:36:39;;;;;;;14.90;9.80;;;;;;;-1.94;90.09;99915.52;111249;241;39210;-56
2024/01/06 04:39:14;;;;;;;15.20;9.90;;;;;;;-1.96;90.09;99914.27;111277;242;41431;-55
2024/01/06 04:41:54;;;;;;;14.20;10.40;;;;;;;-2.01;90.33;99913.41;111256;241;39675;-58
2024/01/06 04:44:31;;;;;;;14.30;9.70;;;;;;;-2.00;90.41;99918.33;111225;241;39708;-59
2024/01/06 04:47:10;;;;;;;13.80;9.90;;;;;;;-2.05;90.51;99921.67;111240;241;40464;-56
2024/01/06 04:49:45;;;;;;;13.70;9.70;;;;;;;-2.12;90.52;99925.59;111272;241;39723;-55
2024/01/06 04:52:22;;;;;;;15.90;9.80;;;;;;;-2.13;90.72;99931.73;111233;241;39819;-57
2024/01/06 04:55:00;;;;;;;14.60;9.70;;;;;;;-2.12;90.87;99938.88;111231;242;39375;-58
2024/01/06 04:57:37;;;;;;;15.70;9.00;;;;;;;-2.11;90.73;99936.89;111235;241;39351;-55
2024/01/06 05:00:14;;;;;;;13.50;9.40;;;;;;;-2.13;90.90;99937.59;111206;242;40852;-55
2024/01/06 05:02:50;;;;;;;13.80;9.50;;;;;;;-2.14;90.91;99928.92;111225;242;39132;-56
2024/01/06 05:05:27;;;;;;;16.50;9.60;;;;;;;-2.13;90.92;99925.70;111273;242;40060;-55
2024/01/06 05:08:08;;;;;;;14.60;9.50;;;;;;;-2.11;90.85;99916.52;111305;241;39715;-55
2024/01/06 05:10:47;;;;;;;15.10;9.40;;;;;;;-2.06;90.85;99913.02;111284;241;39987;-55
2024/01/06 05:13:24;;;;;;;14.80;10.20;;;;;;;-2.03;90.96;99924.59;111276;241;39728;-58
2024/01/06 05:16:06;;;;;;;14.50;9.20;;;;;;;-2.04;90.90;99923.56;111247;241;40839;-58
2024/01/06 05:18:43;;;;;;;13.20;9.50;;;;;;;-2.01;91.00;99926.11;111258;242;39976;-59
2024/01/06 05:21:24;;;;;;;13.50;9.30;;;;;;;-2.02;91.15;99927.30;111254;241;39598;-58
2024/01/06 05:24:01;;;;;;;14.50;9.20;;;;;;;-2.06;91.33;99929.38;111214;242;39200;-55
2024/01/06 05:26:38;;;;;;;16.10;10.00;;;;;;;-2.11;91.40;99927.85;111237;241;39492;-55
2024/01/06 05:29:15;;;;;;;14.00;9.80;;;;;;;-2.10;91.52;99930.59;111270;242;39828;-55
2024/01/06 05:31:54;;;;;;;13.30;9.00;;;;;;;-2.12;91.53;99928.66;111240;242;39592;-54
2024/01/06 05:34:29;;;;;;;16.00;11.00;;;;;;;-2.17;91.93;99933.10;111254;241;40908;-54
2024/01/06 05:37:08;;;;;;;16.30;11.00;;;;;;;-2.14;91.77;99937.63;111278;241;39541;-56
2024/01/06 05:39:45;;;;;;;15.70;11.10;;;;;;;-2.16;91.98;99938.45;111280;241;39513;-57
2024/01/06 05:42:19;;;;;;;18.40;12.60;;;;;;;-2.17;92.06;99939.29;111240;241;39218;-57
2024/01/06 05:44:55;;;;;;;18.00;12.00;;;;;;;-2.13;92.09;99943.50;111225;241;40257;-57
2024/01/06 05:47:33;;;;;;;16.90;11.70;;;;;;;-2.09;91.97;99944.82;111253;242;40851;-60
2024/01/06 05:50:12;;;;;;;17.10;11.70;;;;;;;-2.09;92.10;99947.46;111232;242;40239;-60
2024/01/06 05:52:48;;;;;;;15.50;11.40;;;;;;;-2.06;92.00;99948.59;111313;242;39197;-55
2024/01/06 05:55:24;;;;;;;16.60;11.70;;;;;;;-2.07;92.18;99956.12;111324;242;39813;-56
2024/01/06 05:57:59;;;;;;;17.10;11.80;;;;;;;-2.12;92.24;99956.85;110832;242;599774;-57
2024/01/06 06:00:37;;;;;;;18.10;11.90;;;;;;;-2.08;92.16;99956.71;111381;242;39293;-57
2024/01/06 06:03:15;;;;;;;15.70;11.70;;;;;;;-2.14;92.30;99956.11;111280;242;39948;-56
2024/01/06 06:05:53;;;;;;;16.10;11.90;;;;;;;-2.11;92.18;99956.75;111270;242;39117;-57
2024/01/06 06:08:30;;;;;;;15.40;11.30;;;;;;;-2.10;92.22;99963.21;111254;242;39354;-56
2024/01/06 06:11:10;;;;;;;16.10;10.60;;;;;;;-2.08;92.06;99969.46;111253;242;39210;-56
2024/01/06 06:13:49;;;;;;;14.40;10.60;;;;;;;-2.20;92.44;99967.06;111278;242;39330;-56
2024/01/06 06:16:25;;;;;;;17.20;11.60;;;;;;;-2.24;92.34;99971.05;111210;242;39380;-55
2024/01/06 06:19:00;;;;;;;19.30;12.00;;;;;;;-2.20;92.30;99978.44;111287;242;39894;-57
2024/01/06 06:21:38;;;;;;;19.50;12.50;;;;;;;-2.20;92.30;99983.43;111251;242;39434;-56
2024/01/06 06:24:15;;;;;;;16.20;11.30;;;;;;;-2.20;92.37;99985.74;111259;242;39088;-60
2024/01/06 06:26:53;;;;;;;17.70;11.70;;;;;;;-2.19;92.37;99990.23;111175;242;42391;-59
2024/01/06 06:29:32;;;;;;;17.10;11.70;;;;;;;-2.20;92.43;99988.19;111247;242;40343;-60
2024/01/06 06:32:09;;;;;;;22.80;14.70;;;;;;;-2.16;92.33;99979.88;111265;242;41050;-57
2024/01/06 06:34:44;;;;;;;21.80;13.80;;;;;;;-2.16;92.34;99982.92;111235;242;39423;-56
2024/01/06 06:37:22;;;;;;;18.70;12.80;;;;;;;-2.19;92.35;99992.33;111290;242;39115;-59
2024/01/06 06:39:58;;;;;;;20.40;12.90;;;;;;;-2.18;92.35;99996.87;111284;242;40263;-60
2024/01/06 06:42:34;;;;;;;19.20;13.00;;;;;;;-2.18;92.22;100001.60;111333;242;39578;-60
2024/01/06 06:45:11;;;;;;;18.60;11.20;;;;;;;-2.22;92.29;100014.25;111274;242;40297;-59
2024/01/06 06:47:48;;;;;;;19.40;12.30;;;;;;;-2.29;92.30;100018.33;111305;242;39884;-59
2024/01/06 06:50:30;;;;;;;23.40;14.70;;;;;;;-2.31;92.39;100025.56;111281;242;39664;-59
2024/01/06 06:53:08;;;;;;;57.90;27.20;;;;;;;-2.26;92.24;100024.47;111292;242;39590;-60
2024/01/06 06:55:47;;;;;;;23.50;14.10;;;;;;;-2.21;92.17;100030.58;111283;242;39734;-60
2024/01/06 06:58:27;;;;;;;26.80;15.70;;;;;;;-2.20;92.17;100031.89;111239;242;41122;-59
2024/01/06 07:01:07;;;;;;;41.90;21.60;;;;;;;-2.22;92.30;100025.36;111246;242;40351;-59
2024/01/06 07:03:46;;;;;;;43.20;21.50;;;;;;;-2.23;92.35;100021.59;111232;242;39160;-55
2024/01/06 07:06:23;;;;;;;38.10;20.00;;;;;;;-2.21;92.31;100013.17;111245;242;39010;-55
2024/01/06 07:08:59;;;;;;;23.90;14.00;;;;;;;-2.18;92.37;100017.42;111223;242;39493;-56
2024/01/06 07:11:38;;;;;;;32.00;16.80;;;;;;;-2.14;92.17;100021.55;111240;242;41235;-56
2024/01/06 07:14:15;;;;;;;36.50;19.40;;;;;;;-2.11;92.13;100026.77;111237;242;40004;-60
2024/01/06 07:16:49;;;;;;;24.60;15.10;;;;;;;-2.14;92.21;100012.91;111290;242;39348;-57
2024/01/06 07:19:23;;;;;;;24.60;15.40;;;;;;;-2.17;92.10;100003.45;111291;242;39722;-56
2024/01/06 07:21:58;;;;;;;24.50;14.70;;;;;;;-2.18;92.09;100000.73;111299;242;39790;-55
2024/01/06 07:24:36;;;;;;;18.30;12.00;;;;;;;-2.19;92.00;100004.71;111304;242;39525;-55
2024/01/06 07:27:14;;;;;;;18.40;11.80;;;;;;;-2.21;92.03;100009.59;111341;242;39915;-59
2024/01/06 07:29:49;;;;;;;18.10;12.60;;;;;;;-2.24;92.05;100015.81;111303;242;40580;-59
2024/01/06 07:32:29;;;;;;;18.90;12.50;;;;;;;-2.21;92.10;100017.39;111266;242;39524;-55
2024/01/06 07:35:04;;;;;;;15.00;11.00;;;;;;;-2.18;92.06;100022.38;111249;242;38844;-56
2024/01/06 07:37:42;;;;;;;15.40;10.80;;;;;;;-2.14;92.06;100028.98;111212;243;39676;-56
2024/01/06 07:40:25;;;;;;;18.00;11.20;;;;;;;-2.14;92.10;100038.14;111236;242;39574;-56
2024/01/06 07:43:02;;;;;;;17.20;10.60;;;;;;;-2.08;92.04;100043.46;111261;242;39813;-60
2024/01/06 07:45:37;;;;;;;18.00;11.70;;;;;;;-2.04;92.06;100047.98;111256;242;39791;-60
2024/01/06 07:48:17;;;;;;;17.70;11.60;;;;;;;-2.02;91.93;100053.98;111210;242;39139;-57
2024/01/06 07:50:51;;;;;;;24.20;14.10;;;;;;;-2.00;92.02;100059.63;111243;242;39609;-57
2024/01/06 07:53:26;;;;;;;15.00;9.40;;;;;;;-1.96;92.04;100061.94;111266;242;39692;-56
2024/01/06 07:56:03;;;;;;;17.00;11.60;;;;;;;-1.98;91.99;100061.23;111224;242;39063;-56
2024/01/06 07:58:41;;;;;;;18.00;11.30;;;;;;;-1.99;92.03;100060.99;111248;242;39530;-57
2024/01/06 08:01:17;;;;;;;16.00;11.70;;;;;;;-1.95;92.00;100059.39;111249;242;39038;-56
2024/01/06 08:03:54;;;;;;;17.20;10.80;;;;;;;-1.92;91.96;100062.38;111243;242;39064;-56
2024/01/06 08:06:29;;;;;;;17.10;11.00;;;;;;;-1.94;91.87;100066.90;111250;242;38955;-56
2024/01/06 08:09:11;;;;;;;16.40;10.90;;;;;;;-1.95;91.80;100070.19;111318;242;40651;-55
2024/01/06 08:11:48;;;;;;;17.70;11.00;;;;;;;-1.95;91.81;100065.59;111305;242;40159;-55
2024/01/06 08:14:29;;;;;;;20.50;13.30;;;;;;;-1.98;91.85;100061.21;111254;242;39152;-55
2024/01/06 08:17:06;;;;;;;15.10;10.70;;;;;;;-1.92;91.81;100065.20;111295;242;39255;-58
2024/01/06 08:19:43;;;;;;;18.50;11.40;;;;;;;-1.89;91.77;100063.15;111223;241;39186;-59
2024/01/06 08:22:19;;;;;;;21.50;13.20;;;;;;;-1.92;91.90;100061.27;111219;242;39997;-59
2024/01/06 08:24:55;;;;;;;16.60;11.30;;;;;;;-1.88;91.93;100059.39;111243;242;39907;-55
2024/01/06 08:27:35;;;;;;;17.70;11.60;;;;;;;-1.83;91.81;100067.61;111234;241;39138;-57
2024/01/06 08:30:13;;;;;;;14.40;9.50;;;;;;;-1.78;91.72;100072.89;111240;242;40494;-57
2024/01/06 08:32:48;;;;;;;15.90;10.70;;;;;;;-1.75;91.70;100076.25;111314;241;40123;-58
2024/01/06 08:35:31;;;;;;;22.20;12.60;;;;;;;-1.78;91.57;100082.62;111206;241;39252;-59
2024/01/06 08:38:08;;;;;;;17.60;11.40;;;;;;;-1.77;91.42;100087.88;111246;241;38976;-58
2024/01/06 08:40:44;;;;;;;20.10;12.00;;;;;;;-1.83;91.39;100091.31;111290;241;39526;-59
2024/01/06 08:43:21;;;;;;;20.00;11.80;;;;;;;-1.82;91.34;100094.03;111251;242;39434;-55
2024/01/06 08:46:02;;;;;;;16.00;10.60;;;;;;;-1.77;91.40;100096.83;111292;242;39982;-56
2024/01/06 08:48:41;;;;;;;13.70;9.90;;;;;;;-1.78;91.33;100100.11;111084;242;39026;-60
2024/01/06 08:51:20;;;;;;;15.40;10.20;;;;;;;-1.73;91.23;100102.88;111246;242;40373;-60
2024/01/06 08:53:59;;;;;;;15.20;10.00;;;;;;;-1.73;91.23;100101.29;111280;241;39864;-56
2024/01/06 08:56:37;;;;;;;15.50;10.50;;;;;;;-1.83;91.09;100107.67;111260;242;38729;-56
2024/01/06 08:59:17;;;;;;;17.70;11.50;;;;;;;-1.78;91.10;100110.72;111271;242;40470;-60
2024/01/06 09:01:57;;;;;;;16.50;10.50;;;;;;;-1.81;90.92;100113.70;111305;242;40002;-58
2024/01/06 09:04:31;;;;;;;12.80;9.30;;;;;;;-1.81;90.87;100113.75;111271;242;40776;-60
2024/01/06 09:07:15;;;;;;;13.50;9.60;;;;;;;-1.86;90.84;100118.35;111244;242;40557;-57
2024/01/06 09:09:52;;;;;;;15.50;10.10;;;;;;;-1.85;90.86;100120.23;111236;242;39242;-57
2024/01/06 09:12:37;;;;;;;16.90;11.70;;;;;;;-1.84;90.67;100121.52;111106;242;39592;-57
2024/01/06 09:15:18;;;;;;;17.60;10.30;;;;;;;-1.85;90.68;100118.09;111267;242;39261;-60
2024/01/06 09:17:54;;;;;;;20.40;12.70;;;;;;;-1.75;90.73;100120.00;111044;242;39126;-56
2024/01/06 09:20:33;;;;;;;28.10;16.40;;;;;;;-1.75;90.74;100118.55;111274;242;39504;-56
2024/01/06 09:23:08;;;;;;;16.20;10.90;;;;;;;-1.71;90.66;100126.02;111253;242;38791;-60
2024/01/06 09:25:44;;;;;;;21.20;13.00;;;;;;;-1.70;90.66;100123.84;111265;242;39866;-60
2024/01/06 09:28:24;;;;;;;20.20;11.70;;;;;;;-1.65;90.61;100123.05;111217;242;39519;-59
2024/01/06 09:30:59;;;;;;;23.20;14.00;;;;;;;-1.69;90.48;100127.13;111258;242;39242;-59
2024/01/06 09:33:34;;;;;;;12.60;8.90;;;;;;;-1.78;90.62;100119.83;111335;242;39256;-57
2024/01/06 09:36:13;;;;;;;13.90;9.70;;;;;;;-1.74;90.61;100117.14;111264;241;39625;-56
2024/01/06 09:38:49;;;;;;;15.20;9.80;;;;;;;-1.73;90.55;100119.30;111231;242;39050;-59
2024/01/06 09:41:25;;;;;;;14.80;9.30;;;;;;;-1.70;90.62;100118.05;111307;242;39846;-59
2024/01/06 09:44:10;;;;;;;14.80;9.20;;;;;;;-1.76;90.62;100124.48;111268;241;39127;-59
2024/01/06 09:46:49;;;;;;;13.80;8.90;;;;;;;-1.72;90.65;100126.68;111210;242;39402;-58
2024/01/06 09:49:33;;;;;;;13.90;9.40;;;;;;;-1.68;90.55;100133.56;111238;242;39644;-56
2024/01/06 09:52:15;;;;;;;14.60;9.80;;;;;;;-1.61;90.65;100130.40;111224;242;40827;-55
2024/01/06 09:54:55;;;;;;;15.70;9.10;;;;;;;-1.53;90.72;100133.82;111288;242;39006;-56
2024/01/06 09:57:31;;;;;;;13.00;8.20;;;;;;;-1.50;90.53;100132.98;111300;242;39983;-59
2024/01/06 10:00:11;;;;;;;12.70;9.10;;;;;;;-1.49;90.51;100130.97;111281;242;39406;-58
2024/01/06 10:02:46;;;;;;;12.30;8.10;;;;;;;-1.50;90.35;100132.70;111220;242;39967;-59
2024/01/06 10:05:21;;;;;;;12.00;7.80;;;;;;;-1.50;90.47;100132.30;111254;242;39496;-60
2024/01/06 10:07:56;;;;;;;11.90;7.90;;;;;;;-1.47;90.40;100137.02;111272;242;39758;-59
2024/01/06 10:10:35;;;;;;;12.50;8.90;;;;;;;-1.47;90.33;100135.65;111270;242;40344;-59
2024/01/06 10:13:12;;;;;;;11.20;8.10;;;;;;;-1.39;90.47;100133.75;111241;242;39601;-54
2024/01/06 10:15:49;;;;;;;10.80;7.80;;;;;;;-1.35;90.50;100131.70;111295;242;39794;-54
2024/01/06 10:18:29;;;;;;;12.60;9.10;;;;;;;-1.28;90.44;100133.35;111281;242;40575;-58
2024/01/06 10:21:07;;;;;;;13.20;8.40;;;;;;;-1.37;90.57;100137.33;111262;242;38821;-60
2024/01/06 10:23:42;;;;;;;11.80;8.10;;;;;;;-1.40;90.54;100138.42;111298;242;39304;-58
2024/01/06 10:26:23;;;;;;;11.00;7.90;;;;;;;-1.41;90.46;100138.70;111279;242;39196;-58
2024/01/06 10:29:02;;;;;;;12.60;9.00;;;;;;;-1.46;90.48;100136.98;111261;242;40357;-59
2024/01/06 10:31:44;;;;;;;12.20;8.40;;;;;;;-1.44;90.57;100133.95;111251;242;40681;-58
2024/01/06 10:34:23;;;;;;;11.60;8.10;;;;;;;-1.48;90.66;100137.63;111255;242;39791;-57
2024/01/06 10:37:05;;;;;;;15.70;9.00;;;;;;;-1.48;90.57;100135.13;111263;242;38826;-59
2024/01/06 10:39:44;;;;;;;15.20;8.40;;;;;;;-1.49;90.72;100138.08;111235;242;40420;-59
2024/01/06 10:42:19;;;;;;;16.50;9.40;;;;;;;-1.50;90.77;100140.23;111283;242;40762;-60
2024/01/06 10:44:57;;;;;;;14.10;9.70;;;;;;;-1.51;90.75;100135.23;111226;242;39233;-59
2024/01/06 10:47:35;;;;;;;15.10;9.60;;;;;;;-1.49;90.73;100138.93;111243;242;39789;-58
2024/01/06 10:50:13;;;;;;;12.10;9.30;;;;;;;-1.51;90.78;100142.27;111196;242;39670;-58
2024/01/06 10:52:51;;;;;;;16.10;9.60;;;;;;;-1.55;90.77;100139.76;111231;242;40545;-56
2024/01/06 10:55:30;;;;;;;15.80;9.50;;;;;;;-1.51;90.73;100137.35;111175;242;42730;-54
2024/01/06 10:58:09;;;;;;;15.70;9.50;;;;;;;-1.44;90.87;100138.72;111246;242;38950;-58
2024/01/06 11:00:54;;;;;;;12.70;9.10;;;;;;;-1.46;90.87;100138.00;110993;242;41922;-59
2024/01/06 11:03:39;;;;;;;15.00;10.10;;;;;;;-1.45;90.84;100131.71;111205;242;39687;-58
2024/01/06 11:06:17;;;;;;;13.30;9.50;;;;;;;-1.41;90.98;100128.80;111221;242;39422;-58
2024/01/06 11:09:05;;;;;;;13.00;9.20;;;;;;;-1.41;90.97;100131.06;111286;242;38971;-59
2024/01/06 11:11:45;;;;;;;14.50;9.90;;;;;;;-1.37;90.90;100129.71;111211;242;39005;-59
2024/01/06 11:14:28;;;;;;;13.80;9.10;;;;;;;-1.29;90.94;100134.13;111272;242;39548;-57
2024/01/06 11:17:10;;;;;;;11.80;9.20;;;;;;;-1.28;90.84;100135.66;111190;242;40388;-58
2024/01/06 11:19:54;;;;;;;14.90;9.50;;;;;;;-1.28;90.79;100135.67;111284;242;38912;-59
2024/01/06 11:22:36;;;;;;;13.20;9.00;;;;;;;-1.17;90.86;100137.66;111251;242;39674;-55
2024/01/06 11:25:19;;;;;;;13.10;8.80;;;;;;;-1.13;90.75;100135.52;111195;242;39402;-55
2024/01/06 11:27:57;;;;;;;14.70;9.40;;;;;;;-1.07;90.76;100137.55;111210;242;40726;-58
2024/01/06 11:30:34;;;;;;;15.40;9.00;;;;;;;-1.02;90.79;100143.65;111236;242;40895;-59
2024/01/06 11:33:10;;;;;;;14.20;8.60;;;;;;;-0.97;90.62;100146.15;111285;242;39401;-56
2024/01/06 11:35:53;;;;;;;13.90;8.60;;;;;;;-0.82;90.68;100145.56;111239;242;39815;-55
2024/01/06 11:38:28;;;;;;;13.20;8.50;;;;;;;-0.72;90.53;100140.36;111242;242;40974;-57
2024/01/06 11:41:10;;;;;;;13.10;9.00;;;;;;;-0.65;90.60;100140.42;111276;242;40502;-57
2024/01/06 11:43:50;;;;;;;15.90;10.10;;;;;;;-0.58;90.39;100140.23;111251;242;41240;-56
2024/01/06 11:46:24;;;;;;;14.00;9.10;;;;;;;-0.59;90.29;100143.31;111220;241;40034;-56
2024/01/06 11:49:04;;;;;;;12.60;8.00;;;;;;;-0.61;89.93;100148.61;111228;242;39878;-55
2024/01/06 11:51:45;;;;;;;12.10;8.50;;;;;;;-0.63;89.73;100142.63;111218;242;39913;-56
2024/01/06 11:54:23;;;;;;;12.70;8.50;;;;;;;-0.67;89.64;100152.51;111238;241;38900;-56
2024/01/06 11:57:01;;;;;;;11.70;7.90;;;;;;;-0.78;89.20;100153.02;111265;241;40255;-59
2024/01/06 11:59:38;;;;;;;12.20;8.50;;;;;;;-0.92;89.14;100148.66;111266;242;39758;-58
2024/01/06 12:02:18;;;;;;;12.80;8.40;;;;;;;-0.94;89.27;100149.40;111263;242;39585;-58
2024/01/06 12:04:54;;;;;;;10.40;7.30;;;;;;;-1.01;89.02;100149.26;111254;241;40885;-59